Time;durP1;ratioP1;P1;durP2;ratioP2;P2;SDS_P1;SDS_P2;PMS_P1;PMS_P2;Temp;Humidity;BMP_temperature;BMP_pressure;BME280_temperature;BME280_humidity;BME280_pressure;Samples;Min_cycle;Max_cycle;Signal;HPM_P1;HPM_P2
2021/03/02 00:01:00;;;;;;;9.82;7.65;;;10.10;53.80;;;;;;2128082;27;20034;-61
2021/03/02 00:02:21;;;;;;;13.60;8.32;;;10.10;53.80;;;;;;2118496;27;20089;-61
2021/03/02 00:03:42;;;;;;;10.25;8.13;;;10.10;53.80;;;;;;2129234;27;20014;-60
2021/03/02 00:05:04;;;;;;;12.20;8.05;;;10.10;53.90;;;;;;2130952;27;20031;-60
2021/03/02 00:06:25;;;;;;;11.88;7.40;;;10.10;53.90;;;;;;2126887;27;20499;-61
2021/03/02 00:07:45;;;;;;;9.93;7.60;;;10.10;53.90;;;;;;2132971;27;20015;-61
2021/03/02 00:09:06;;;;;;;8.32;7.30;;;10.10;53.80;;;;;;2128956;27;20101;-61
2021/03/02 00:10:28;;;;;;;10.00;7.75;;;10.10;53.90;;;;;;2126472;27;20019;-61
2021/03/02 00:11:51;;;;;;;8.95;7.43;;;10.10;54.10;;;;;;2132314;27;20015;-61
2021/03/02 00:13:12;;;;;;;10.60;7.45;;;10.10;54.00;;;;;;2130512;27;20122;-61
2021/03/02 00:14:37;;;;;;;8.38;7.10;;;10.10;54.00;;;;;;2131128;27;20085;-61
2021/03/02 00:16:03;;;;;;;9.68;7.15;;;10.10;54.00;;;;;;2130902;27;20031;-60
2021/03/02 00:17:35;;;;;;;12.02;7.32;;;10.10;54.20;;;;;;2129790;27;20091;-60
2021/03/02 00:19:09;;;;;;;9.55;6.75;;;10.10;54.30;;;;;;2130139;27;20117;-60
2021/03/02 00:20:34;;;;;;;8.82;6.85;;;10.10;54.10;;;;;;2127256;27;20026;-60
2021/03/02 00:22:12;;;;;;;9.95;6.97;;;10.10;53.90;;;;;;2131546;27;20373;-63
2021/03/02 00:23:40;;;;;;;8.32;6.70;;;10.10;54.00;;;;;;2126440;27;20109;-60
2021/03/02 00:25:05;;;;;;;9.25;6.72;;;10.10;53.90;;;;;;2128852;27;20035;-60
2021/03/02 00:26:29;;;;;;;9.68;7.50;;;10.10;53.90;;;;;;2126191;27;20484;-60
2021/03/02 00:27:53;;;;;;;10.18;7.18;;;10.10;53.80;;;;;;2130582;27;20038;-60
2021/03/02 00:29:15;;;;;;;9.65;7.15;;;10.10;53.80;;;;;;2130472;27;20049;-61
2021/03/02 00:30:37;;;;;;;11.05;7.95;;;10.10;53.80;;;;;;2128073;27;20105;-61
2021/03/02 00:31:58;;;;;;;11.38;7.53;;;10.10;53.90;;;;;;2131485;27;20038;-61
2021/03/02 00:33:22;;;;;;;9.05;7.15;;;10.10;53.90;;;;;;2129541;27;20022;-61
2021/03/02 00:34:43;;;;;;;8.13;6.78;;;10.10;54.10;;;;;;2130569;27;20030;-61
2021/03/02 00:36:04;;;;;;;10.35;7.25;;;10.10;53.90;;;;;;2130840;27;20106;-61
2021/03/02 00:37:25;;;;;;;10.57;7.50;;;10.10;54.00;;;;;;2131355;27;20034;-61
2021/03/02 00:38:46;;;;;;;11.38;8.35;;;10.10;54.00;;;;;;2130916;27;20100;-61
2021/03/02 00:40:07;;;;;;;9.95;7.32;;;10.10;54.10;;;;;;2131049;27;20035;-61
2021/03/02 00:41:28;;;;;;;10.32;7.63;;;10.10;54.10;;;;;;2130144;27;20034;-61
2021/03/02 00:42:50;;;;;;;9.10;7.63;;;10.10;54.00;;;;;;2123187;27;20022;-61
2021/03/02 00:44:11;;;;;;;9.57;7.63;;;10.10;54.10;;;;;;2127921;27;20031;-61
2021/03/02 00:45:32;;;;;;;9.82;7.82;;;10.00;54.00;;;;;;2126983;27;20029;-60
2021/03/02 00:46:53;;;;;;;8.40;7.45;;;10.10;54.10;;;;;;2132031;27;20022;-61
2021/03/02 00:48:15;;;;;;;9.07;7.20;;;10.00;54.10;;;;;;2131012;27;20142;-60
2021/03/02 00:49:36;;;;;;;10.18;7.93;;;10.10;54.20;;;;;;2128228;27;20054;-61
2021/03/02 00:50:57;;;;;;;11.10;7.75;;;10.10;54.10;;;;;;2130864;27;20384;-61
2021/03/02 00:52:18;;;;;;;10.57;7.85;;;10.10;54.20;;;;;;2126211;27;20023;-61
2021/03/02 00:53:39;;;;;;;11.07;7.82;;;10.00;54.10;;;;;;2131456;27;20037;-60
2021/03/02 00:55:00;;;;;;;11.55;8.27;;;10.10;54.20;;;;;;2129453;27;20039;-60
2021/03/02 00:56:21;;;;;;;10.68;8.30;;;10.00;54.20;;;;;;2131776;27;20465;-60
2021/03/02 00:57:41;;;;;;;10.82;7.30;;;10.00;54.10;;;;;;2131407;27;20118;-60
2021/03/02 00:59:03;;;;;;;8.93;7.80;;;10.10;54.20;;;;;;2127813;27;20103;-60
2021/03/02 01:00:24;;;;;;;10.43;7.78;;;10.10;54.20;;;;;;2116526;27;20043;-60
2021/03/02 01:01:45;;;;;;;9.60;7.95;;;10.10;54.20;;;;;;2126080;27;20026;-61
2021/03/02 01:03:06;;;;;;;9.88;7.80;;;10.00;54.10;;;;;;2129823;27;20470;-60
2021/03/02 01:04:27;;;;;;;8.52;7.38;;;10.00;54.20;;;;;;2131111;27;20102;-61
2021/03/02 01:05:48;;;;;;;9.00;7.40;;;10.10;54.20;;;;;;2129114;27;20113;-61
2021/03/02 01:07:09;;;;;;;8.98;7.50;;;10.10;54.20;;;;;;2131099;27;20022;-60
2021/03/02 01:08:30;;;;;;;8.20;7.07;;;10.00;54.10;;;;;;2127309;27;20023;-61
2021/03/02 01:09:51;;;;;;;9.82;7.85;;;10.00;54.10;;;;;;2132229;27;20038;-61
2021/03/02 01:11:12;;;;;;;9.45;7.88;;;10.10;54.20;;;;;;2131060;27;20027;-61
2021/03/02 01:12:32;;;;;;;10.05;7.93;;;10.00;54.20;;;;;;2131373;27;20023;-60
2021/03/02 01:13:53;;;;;;;9.50;7.25;;;10.00;54.20;;;;;;2130639;27;20014;-60
2021/03/02 01:15:15;;;;;;;11.70;7.45;;;10.00;54.20;;;;;;2121152;27;20136;-61
2021/03/02 01:16:36;;;;;;;10.55;7.75;;;10.00;54.10;;;;;;2127435;27;20521;-60
2021/03/02 01:17:57;;;;;;;10.85;7.80;;;10.00;54.20;;;;;;2130789;27;20038;-61
2021/03/02 01:19:17;;;;;;;8.95;7.10;;;10.00;54.20;;;;;;2128497;27;20469;-60
2021/03/02 01:20:38;;;;;;;10.13;8.13;;;10.00;54.10;;;;;;2131039;27;20027;-60
2021/03/02 01:21:59;;;;;;;9.65;7.82;;;10.00;54.10;;;;;;2131247;27;20560;-61
2021/03/02 01:23:20;;;;;;;11.85;7.72;;;10.00;54.20;;;;;;2129167;27;20026;-60
2021/03/02 01:24:41;;;;;;;10.27;8.05;;;10.00;54.10;;;;;;2129426;27;20046;-61
2021/03/02 01:26:02;;;;;;;10.18;7.75;;;10.00;54.20;;;;;;2130041;27;20413;-61
2021/03/02 01:27:23;;;;;;;9.77;8.20;;;10.00;54.20;;;;;;2128981;27;20134;-60
2021/03/02 01:28:44;;;;;;;11.10;8.15;;;9.90;54.10;;;;;;2130903;27;20093;-60
2021/03/02 01:30:10;;;;;;;11.38;8.05;;;9.90;54.10;;;;;;2128580;27;20035;-60
2021/03/02 01:31:31;;;;;;;9.48;7.90;;;9.90;54.20;;;;;;2127652;27;20369;-60
2021/03/02 01:32:52;;;;;;;8.77;7.53;;;9.90;54.00;;;;;;2131312;27;20484;-60
2021/03/02 01:34:13;;;;;;;10.07;7.72;;;9.90;54.50;;;;;;2130959;27;20457;-60
2021/03/02 01:35:34;;;;;;;10.57;8.13;;;9.90;54.00;;;;;;2131701;27;20058;-60
2021/03/02 01:36:55;;;;;;;12.68;9.10;;;9.90;54.10;;;;;;2130441;27;20041;-59
2021/03/02 01:38:16;;;;;;;9.20;7.63;;;9.80;54.10;;;;;;2122145;27;20504;-60
2021/03/02 01:39:37;;;;;;;11.50;7.53;;;9.80;54.20;;;;;;2127373;27;20357;-61
2021/03/02 01:40:58;;;;;;;9.68;7.60;;;9.80;54.20;;;;;;2129501;27;20035;-60
2021/03/02 01:42:18;;;;;;;10.55;7.38;;;9.80;54.30;;;;;;2126265;27;20023;-61
2021/03/02 01:43:39;;;;;;;9.43;7.50;;;9.80;54.30;;;;;;2131025;27;20046;-61
2021/03/02 01:45:01;;;;;;;10.93;7.93;;;9.80;54.30;;;;;;2130650;27;20171;-61
2021/03/02 01:46:22;;;;;;;12.88;7.82;;;9.80;54.40;;;;;;2126774;27;20632;-60
2021/03/02 01:47:45;;;;;;;10.93;8.27;;;9.80;54.40;;;;;;2131510;27;20020;-60
2021/03/02 01:49:06;;;;;;;10.95;7.97;;;9.70;54.40;;;;;;2129981;27;20414;-60
2021/03/02 01:50:27;;;;;;;10.27;7.85;;;9.80;54.40;;;;;;2131159;27;20039;-60
2021/03/02 01:51:48;;;;;;;10.32;8.23;;;9.70;54.40;;;;;;2127474;27;20072;-61
2021/03/02 01:53:09;;;;;;;9.93;7.57;;;9.70;54.50;;;;;;2128871;27;20015;-60
2021/03/02 01:54:30;;;;;;;10.18;7.82;;;9.70;54.60;;;;;;2120414;27;20031;-60
2021/03/02 01:55:51;;;;;;;9.05;7.57;;;9.70;54.70;;;;;;2127015;27;20042;-61
2021/03/02 01:57:12;;;;;;;12.07;8.57;;;9.70;54.70;;;;;;2129379;27;20033;-61
2021/03/02 01:58:33;;;;;;;10.88;7.95;;;9.70;54.70;;;;;;2127671;27;20080;-60
2021/03/02 01:59:54;;;;;;;11.27;8.32;;;9.70;54.80;;;;;;2131071;27;20033;-60
2021/03/02 02:01:17;;;;;;;12.02;8.90;;;9.60;54.70;;;;;;2122228;27;20355;-60
2021/03/02 02:02:48;;;;;;;12.10;7.97;;;9.60;54.80;;;;;;2124772;27;20066;-60
2021/03/02 02:04:23;;;;;;;11.38;7.25;;;9.60;54.90;;;;;;2129488;27;20467;-60
2021/03/02 02:05:51;;;;;;;9.80;7.45;;;9.60;55.00;;;;;;2130052;27;20062;-61
2021/03/02 02:07:17;;;;;;;9.02;7.82;;;9.60;54.80;;;;;;2129779;27;20027;-60
2021/03/02 02:08:46;;;;;;;8.77;7.45;;;9.60;54.70;;;;;;2127837;27;20034;-60
2021/03/02 02:10:17;;;;;;;11.18;7.72;;;9.60;54.60;;;;;;2130137;27;20692;-61
2021/03/02 02:11:47;;;;;;;9.63;7.75;;;9.50;54.70;;;;;;2126345;27;20030;-61
2021/03/02 02:13:14;;;;;;;10.00;7.85;;;9.60;54.70;;;;;;2129209;27;20374;-61
2021/03/02 02:14:56;;;;;;;10.77;8.05;;;9.60;54.60;;;;;;2129088;27;20374;-60
2021/03/02 02:16:22;;;;;;;8.40;7.05;;;9.50;54.90;;;;;;2124130;27;20050;-60
2021/03/02 02:17:55;;;;;;;10.32;7.97;;;9.50;54.60;;;;;;2130088;27;20041;-61
2021/03/02 02:19:45;;;;;;;9.65;7.53;;;9.50;54.80;;;;;;2130101;27;20062;-61
2021/03/02 02:21:06;;;;;;;7.78;6.80;;;9.50;55.00;;;;;;2129362;27;20026;-61
2021/03/02 02:22:42;;;;;;;8.80;6.72;;;9.50;54.40;;;;;;2126683;27;20034;-61
2021/03/02 02:24:11;;;;;;;9.40;7.38;;;9.50;54.60;;;;;;2119638;27;20034;-60
2021/03/02 02:25:40;;;;;;;9.23;7.68;;;9.40;54.40;;;;;;2125250;27;20035;-60
2021/03/02 02:27:01;;;;;;;9.98;6.80;;;9.40;54.60;;;;;;2131646;27;20029;-60
2021/03/02 02:28:24;;;;;;;11.35;7.75;;;9.40;54.50;;;;;;2124837;27;20031;-60
2021/03/02 02:29:46;;;;;;;9.23;6.88;;;9.40;54.40;;;;;;2130247;27;20026;-61
2021/03/02 02:31:08;;;;;;;9.20;7.13;;;9.40;54.50;;;;;;2129166;27;20034;-61
2021/03/02 02:32:30;;;;;;;8.95;7.03;;;9.40;54.60;;;;;;2129877;27;20058;-61
2021/03/02 02:33:51;;;;;;;8.73;6.93;;;9.40;54.60;;;;;;2130143;27;20027;-61
2021/03/02 02:35:14;;;;;;;8.50;6.82;;;9.40;54.60;;;;;;2129403;27;20114;-61
2021/03/02 02:36:35;;;;;;;10.32;6.97;;;9.30;54.60;;;;;;2125878;27;20027;-61
2021/03/02 02:37:57;;;;;;;8.57;6.78;;;9.30;54.60;;;;;;2130391;27;20041;-61
2021/03/02 02:39:19;;;;;;;9.57;7.57;;;9.30;54.70;;;;;;2131642;27;20027;-60
2021/03/02 02:40:42;;;;;;;10.02;7.32;;;9.30;54.70;;;;;;2129565;27;20113;-60
2021/03/02 02:42:03;;;;;;;10.85;7.05;;;9.30;54.70;;;;;;2130780;27;20026;-60
2021/03/02 02:43:26;;;;;;;9.57;7.32;;;9.30;54.70;;;;;;2115818;28;20023;-61
2021/03/02 02:44:48;;;;;;;9.52;7.45;;;9.30;54.80;;;;;;2126886;27;20100;-60
2021/03/02 02:46:10;;;;;;;10.15;7.47;;;9.30;54.80;;;;;;2127774;27;20027;-60
2021/03/02 02:47:31;;;;;;;8.43;6.82;;;9.30;54.80;;;;;;2130206;27;20030;-60
2021/03/02 02:48:56;;;;;;;8.85;6.70;;;9.30;54.80;;;;;;2120590;28;20114;-60
2021/03/02 02:50:18;;;;;;;10.00;6.95;;;9.30;54.80;;;;;;2122394;27;20033;-60
2021/03/02 02:51:40;;;;;;;8.30;6.43;;;9.30;54.80;;;;;;2129478;27;20093;-60
2021/03/02 02:53:01;;;;;;;10.15;6.90;;;9.30;54.80;;;;;;2127700;27;20035;-61
2021/03/02 02:54:24;;;;;;;8.63;7.60;;;9.30;54.80;;;;;;2127121;27;20079;-61
2021/03/02 02:55:56;;;;;;;10.90;7.63;;;9.30;54.90;;;;;;2130948;27;20364;-63
2021/03/02 02:57:18;;;;;;;8.93;7.13;;;9.30;55.00;;;;;;2125007;27;20473;-62
2021/03/02 02:58:52;;;;;;;8.50;7.05;;;9.30;54.90;;;;;;2120821;28;20118;-61
2021/03/02 03:00:18;;;;;;;9.05;7.00;;;9.20;54.90;;;;;;2124751;27;20201;-60
2021/03/02 03:01:45;;;;;;;8.48;7.38;;;9.30;55.00;;;;;;2131110;27;20045;-60
2021/03/02 03:03:10;;;;;;;8.73;6.65;;;9.30;55.00;;;;;;2128276;27;20023;-60
2021/03/02 03:04:40;;;;;;;8.70;7.22;;;9.20;54.80;;;;;;2126826;27;20042;-60
2021/03/02 03:06:05;;;;;;;9.68;7.57;;;9.20;54.90;;;;;;2128828;27;20435;-60
2021/03/02 03:07:32;;;;;;;8.23;7.03;;;9.20;54.80;;;;;;2129873;27;20039;-60
2021/03/02 03:08:54;;;;;;;9.23;7.18;;;9.20;54.80;;;;;;2131610;27;20138;-61
2021/03/02 03:10:15;;;;;;;12.85;7.78;;;9.20;54.80;;;;;;2131272;27;20432;-62
2021/03/02 03:11:42;;;;;;;9.30;7.43;;;9.20;54.70;;;;;;2130587;27;20037;-60
2021/03/02 03:13:06;;;;;;;9.55;7.50;;;9.20;54.90;;;;;;2131757;27;20031;-61
2021/03/02 03:14:28;;;;;;;8.50;7.28;;;9.20;54.90;;;;;;2128030;27;20035;-61
2021/03/02 03:15:53;;;;;;;9.52;7.75;;;9.20;54.80;;;;;;2131865;27;20082;-61
2021/03/02 03:17:17;;;;;;;9.70;7.38;;;9.10;54.80;;;;;;2131752;27;20035;-61
2021/03/02 03:18:46;;;;;;;9.75;7.65;;;9.10;54.80;;;;;;2124270;27;20357;-61
2021/03/02 03:20:11;;;;;;;8.38;7.20;;;9.20;55.00;;;;;;2131856;27;20027;-61
2021/03/02 03:21:32;;;;;;;9.25;7.07;;;9.10;54.90;;;;;;2127802;27;20019;-61
2021/03/02 03:22:55;;;;;;;9.93;7.53;;;9.10;54.90;;;;;;2130956;27;20402;-61
2021/03/02 03:24:16;;;;;;;9.05;7.18;;;9.10;55.00;;;;;;2127710;27;20032;-61
2021/03/02 03:25:37;;;;;;;9.07;7.35;;;9.10;54.90;;;;;;2126040;27;20043;-61
2021/03/02 03:26:59;;;;;;;11.25;7.57;;;9.10;55.00;;;;;;2130787;27;20045;-61
2021/03/02 03:28:21;;;;;;;10.27;7.47;;;9.10;55.10;;;;;;2130399;27;20053;-60
2021/03/02 03:29:43;;;;;;;8.90;7.15;;;9.20;55.20;;;;;;2129368;27;20049;-61
2021/03/02 03:31:06;;;;;;;10.65;7.70;;;9.10;55.20;;;;;;2129454;27;20109;-61
2021/03/02 03:32:28;;;;;;;9.45;7.00;;;9.10;55.20;;;;;;2129837;27;20054;-59
2021/03/02 03:33:52;;;;;;;8.65;7.68;;;9.20;55.30;;;;;;2123903;27;20031;-61
2021/03/02 03:35:13;;;;;;;9.98;8.00;;;9.10;55.30;;;;;;2121289;27;20031;-61
2021/03/02 03:36:35;;;;;;;10.30;7.63;;;9.20;55.40;;;;;;2128628;27;20026;-61
2021/03/02 03:37:56;;;;;;;11.55;7.63;;;9.10;55.30;;;;;;2128344;27;20026;-61
2021/03/02 03:39:17;;;;;;;8.52;7.22;;;9.10;55.20;;;;;;2130575;27;20023;-61
2021/03/02 03:40:38;;;;;;;10.25;7.57;;;9.10;55.20;;;;;;2127348;27;20079;-61
2021/03/02 03:42:00;;;;;;;10.18;7.72;;;9.10;55.30;;;;;;2130865;27;20038;-60
2021/03/02 03:43:21;;;;;;;11.85;7.57;;;9.10;55.30;;;;;;2129157;27;20041;-59
2021/03/02 03:44:41;;;;;;;8.32;6.75;;;9.10;55.30;;;;;;2128889;27;20023;-62
2021/03/02 03:46:02;;;;;;;9.60;7.68;;;9.10;55.30;;;;;;2129498;27;20042;-60
2021/03/02 03:47:23;;;;;;;9.45;7.20;;;9.10;55.30;;;;;;2126849;27;20125;-59
2021/03/02 03:48:44;;;;;;;9.23;7.40;;;9.10;55.30;;;;;;2132007;27;20022;-59
2021/03/02 03:50:07;;;;;;;9.60;7.90;;;9.10;55.30;;;;;;2128815;27;20066;-59
2021/03/02 03:51:30;;;;;;;10.93;8.00;;;9.10;55.30;;;;;;2126943;27;20468;-61
2021/03/02 03:52:55;;;;;;;10.07;8.20;;;9.10;55.30;;;;;;2129323;27;20117;-61
2021/03/02 03:54:18;;;;;;;11.80;8.25;;;9.10;55.50;;;;;;2126835;27;20034;-61
2021/03/02 03:55:42;;;;;;;12.43;8.43;;;9.00;55.30;;;;;;2128339;27;20034;-61
2021/03/02 03:57:04;;;;;;;9.80;7.60;;;9.00;55.30;;;;;;2129554;27;20477;-61
2021/03/02 03:58:29;;;;;;;10.27;8.45;;;9.00;55.30;;;;;;2127095;27;20124;-61
2021/03/02 03:59:51;;;;;;;10.27;7.78;;;9.00;55.40;;;;;;2131467;27;20022;-61
2021/03/02 04:01:12;;;;;;;9.48;7.75;;;9.00;55.30;;;;;;2128257;27;20558;-61
2021/03/02 04:02:34;;;;;;;11.38;7.50;;;9.00;55.30;;;;;;2129472;27;20034;-61
2021/03/02 04:03:55;;;;;;;10.57;7.13;;;9.00;55.40;;;;;;2130788;27;20022;-61
2021/03/02 04:05:17;;;;;;;10.48;7.88;;;9.00;55.40;;;;;;2131031;27;20346;-61
2021/03/02 04:06:38;;;;;;;9.68;7.75;;;9.00;55.50;;;;;;2128251;27;20033;-61
2021/03/02 04:07:59;;;;;;;8.48;7.53;;;9.00;55.50;;;;;;2126172;27;20054;-61
2021/03/02 04:09:21;;;;;;;11.82;8.50;;;9.00;55.50;;;;;;2125660;27;20058;-61
2021/03/02 04:10:42;;;;;;;13.05;9.15;;;8.90;55.50;;;;;;2127489;27;20110;-61
2021/03/02 04:12:04;;;;;;;8.90;7.97;;;8.90;55.60;;;;;;2131237;27;20079;-61
2021/03/02 04:13:27;;;;;;;11.48;8.15;;;8.90;55.70;;;;;;2132887;27;20097;-61
2021/03/02 04:14:48;;;;;;;11.30;8.73;;;8.90;55.70;;;;;;2131230;27;20030;-61
2021/03/02 04:16:09;;;;;;;10.90;8.45;;;8.90;55.70;;;;;;2128681;27;20062;-61
2021/03/02 04:17:30;;;;;;;10.90;8.02;;;8.90;55.70;;;;;;2129013;27;20221;-61
2021/03/02 04:18:50;;;;;;;11.05;8.77;;;8.90;55.80;;;;;;2120572;27;20027;-61
2021/03/02 04:20:12;;;;;;;11.85;9.02;;;8.90;55.70;;;;;;2127659;27;20092;-61
2021/03/02 04:21:32;;;;;;;11.65;8.88;;;8.90;55.80;;;;;;2127191;27;20105;-61
2021/03/02 04:22:56;;;;;;;10.55;8.02;;;8.90;55.90;;;;;;2121944;27;20070;-61
2021/03/02 04:24:17;;;;;;;10.55;8.13;;;8.90;55.90;;;;;;2124349;27;20026;-60
2021/03/02 04:25:38;;;;;;;10.63;8.00;;;8.90;55.80;;;;;;2129545;27;20031;-61
2021/03/02 04:26:59;;;;;;;10.80;8.32;;;8.80;55.70;;;;;;2128682;27;20034;-61
2021/03/02 04:28:20;;;;;;;11.77;8.45;;;8.90;55.80;;;;;;2125553;27;20474;-60
2021/03/02 04:29:41;;;;;;;11.13;8.60;;;8.90;55.90;;;;;;2131143;27;20053;-61
2021/03/02 04:31:02;;;;;;;10.32;7.90;;;8.90;55.90;;;;;;2127017;27;20065;-61
2021/03/02 04:32:23;;;;;;;12.48;8.63;;;8.90;55.90;;;;;;2126832;27;20392;-61
2021/03/02 04:33:44;;;;;;;10.88;9.07;;;8.90;55.80;;;;;;2131562;27;20034;-62
2021/03/02 04:35:05;;;;;;;10.77;9.43;;;8.80;55.80;;;;;;2130410;27;20469;-61
2021/03/02 04:36:26;;;;;;;13.55;8.95;;;8.80;55.90;;;;;;2125323;27;20026;-61
2021/03/02 04:37:47;;;;;;;11.25;8.75;;;8.80;56.00;;;;;;2130451;27;20395;-61
2021/03/02 04:39:09;;;;;;;13.77;9.35;;;8.80;56.10;;;;;;2130704;27;20470;-61
2021/03/02 04:40:30;;;;;;;11.02;9.27;;;8.80;56.10;;;;;;2120029;27;20444;-61
2021/03/02 04:41:50;;;;;;;11.48;8.68;;;8.80;56.00;;;;;;2124389;27;20038;-61
2021/03/02 04:43:11;;;;;;;10.63;8.70;;;8.80;56.10;;;;;;2130557;27;20022;-61
2021/03/02 04:44:32;;;;;;;11.18;8.57;;;8.80;56.10;;;;;;2128597;27;20030;-61
2021/03/02 04:45:53;;;;;;;10.30;8.68;;;8.80;56.10;;;;;;2127749;27;20113;-61
2021/03/02 04:47:14;;;;;;;13.13;9.30;;;8.80;56.20;;;;;;2129717;27;20130;-61
2021/03/02 04:48:35;;;;;;;9.02;7.90;;;8.80;56.20;;;;;;2117511;27;20027;-61
2021/03/02 04:49:56;;;;;;;10.13;8.70;;;8.80;56.20;;;;;;2130197;27;20027;-59
2021/03/02 04:51:17;;;;;;;12.55;8.85;;;8.80;56.20;;;;;;2131420;27;20027;-59
2021/03/02 04:52:38;;;;;;;11.35;8.68;;;8.80;56.20;;;;;;2130544;27;20047;-61
2021/03/02 04:53:59;;;;;;;11.50;8.68;;;8.80;56.20;;;;;;2126371;27;20051;-61
2021/03/02 04:55:20;;;;;;;13.45;9.48;;;8.80;56.30;;;;;;2125324;27;20046;-60
2021/03/02 04:56:41;;;;;;;12.45;9.30;;;8.80;56.30;;;;;;2121863;27;20027;-60
2021/03/02 04:58:02;;;;;;;11.48;8.85;;;8.80;56.30;;;;;;2124952;27;20588;-61
2021/03/02 04:59:23;;;;;;;11.15;9.43;;;8.80;56.20;;;;;;2124191;27;20035;-60
2021/03/02 05:00:44;;;;;;;12.35;8.15;;;8.80;56.20;;;;;;2130400;27;20039;-60
2021/03/02 05:02:05;;;;;;;10.65;9.38;;;8.80;56.20;;;;;;2128189;27;20110;-60
2021/03/02 05:03:25;;;;;;;10.20;8.65;;;8.80;56.30;;;;;;2122672;27;20023;-61
2021/03/02 05:04:46;;;;;;;11.23;8.90;;;8.80;56.30;;;;;;2124952;27;20050;-60
2021/03/02 05:06:07;;;;;;;10.20;9.07;;;8.80;56.30;;;;;;2130265;27;20030;-60
2021/03/02 05:07:28;;;;;;;10.18;8.55;;;8.80;56.40;;;;;;2126289;27;20019;-61
2021/03/02 05:08:50;;;;;;;10.88;9.00;;;8.80;56.30;;;;;;2131093;27;20022;-60
2021/03/02 05:10:12;;;;;;;11.75;8.90;;;8.80;56.30;;;;;;2128944;27;20067;-60
2021/03/02 05:11:33;;;;;;;10.75;9.00;;;8.80;56.30;;;;;;2129976;27;20027;-60
2021/03/02 05:12:53;;;;;;;11.23;8.23;;;8.80;56.30;;;;;;2125730;27;20045;-60
2021/03/02 05:14:14;;;;;;;12.30;9.18;;;8.80;56.30;;;;;;2115313;27;20536;-60
2021/03/02 05:15:36;;;;;;;10.27;8.55;;;8.80;56.30;;;;;;2121753;27;20031;-60
2021/03/02 05:16:57;;;;;;;9.85;8.07;;;8.80;56.30;;;;;;2129618;27;20034;-61
2021/03/02 05:18:18;;;;;;;10.40;8.93;;;8.80;56.30;;;;;;2129691;27;20051;-60
2021/03/02 05:19:39;;;;;;;9.48;8.38;;;8.80;56.30;;;;;;2119922;27;20023;-60
2021/03/02 05:21:00;;;;;;;10.05;7.88;;;8.80;56.30;;;;;;2127892;27;20110;-60
2021/03/02 05:22:21;;;;;;;10.02;7.95;;;8.80;56.20;;;;;;2128199;27;20023;-60
2021/03/02 05:23:42;;;;;;;8.48;6.95;;;8.80;56.30;;;;;;2130216;27;20006;-60
2021/03/02 05:25:04;;;;;;;9.77;7.22;;;8.80;56.30;;;;;;2119815;27;20027;-60
2021/03/02 05:26:25;;;;;;;8.50;6.72;;;8.80;56.30;;;;;;2128215;27;20034;-60
2021/03/02 05:27:46;;;;;;;9.95;7.80;;;8.80;56.20;;;;;;2129522;27;20015;-60
2021/03/02 05:29:07;;;;;;;9.20;7.35;;;8.80;56.20;;;;;;2130044;27;20065;-59
2021/03/02 05:30:28;;;;;;;11.55;7.97;;;8.80;56.20;;;;;;2130909;27;20038;-59
2021/03/02 05:31:49;;;;;;;8.98;7.30;;;8.80;56.20;;;;;;2129336;27;20045;-59
2021/03/02 05:33:09;;;;;;;9.95;7.30;;;8.80;56.20;;;;;;2129313;27;20427;-59
2021/03/02 05:34:31;;;;;;;9.07;7.38;;;8.80;56.20;;;;;;2129778;27;20031;-60
2021/03/02 05:35:52;;;;;;;9.48;7.60;;;8.80;56.30;;;;;;2129903;27;20031;-60
2021/03/02 05:37:13;;;;;;;9.07;7.18;;;8.80;56.20;;;;;;2129684;27;20030;-60
2021/03/02 05:38:35;;;;;;;9.93;7.20;;;8.80;56.20;;;;;;2130322;27;20026;-59
2021/03/02 05:39:56;;;;;;;8.00;7.07;;;8.80;56.20;;;;;;2129772;27;20026;-61
2021/03/02 05:41:17;;;;;;;9.68;7.68;;;8.80;56.10;;;;;;2127602;27;20027;-61
2021/03/02 05:42:38;;;;;;;8.32;7.13;;;8.80;56.20;;;;;;2126369;27;20475;-61
2021/03/02 05:43:59;;;;;;;9.80;7.38;;;8.80;56.20;;;;;;2130467;27;20067;-61
2021/03/02 05:45:21;;;;;;;9.82;7.32;;;8.80;56.20;;;;;;2122489;27;20027;-61
2021/03/02 05:46:43;;;;;;;8.02;7.07;;;8.80;56.20;;;;;;2126769;27;20346;-61
2021/03/02 05:48:10;;;;;;;8.60;6.93;;;8.80;56.30;;;;;;2127620;27;20027;-61
2021/03/02 05:49:31;;;;;;;8.73;6.43;;;8.80;56.30;;;;;;2128981;27;20051;-61
2021/03/02 05:50:55;;;;;;;9.38;7.38;;;8.80;56.10;;;;;;2126883;27;20026;-61
2021/03/02 05:52:16;;;;;;;7.93;7.00;;;8.80;56.20;;;;;;2128269;27;20033;-61
2021/03/02 05:53:39;;;;;;;8.23;6.63;;;8.80;56.10;;;;;;2129078;27;20061;-61
2021/03/02 05:55:02;;;;;;;9.52;6.78;;;8.80;56.20;;;;;;2127117;27;20031;-61
2021/03/02 05:56:23;;;;;;;7.63;6.75;;;8.80;56.10;;;;;;2126501;27;20038;-61
2021/03/02 05:57:44;;;;;;;10.45;7.55;;;8.80;56.10;;;;;;2126257;27;20572;-61
2021/03/02 05:59:06;;;;;;;11.27;6.68;;;8.80;56.10;;;;;;2127317;27;20472;-61
2021/03/02 06:00:27;;;;;;;10.48;7.07;;;8.80;56.10;;;;;;2123866;27;20027;-61
2021/03/02 06:01:48;;;;;;;9.27;6.70;;;8.70;56.00;;;;;;2127629;27;20019;-61
2021/03/02 06:03:10;;;;;;;8.55;6.15;;;8.70;56.00;;;;;;2127280;27;20050;-61
2021/03/02 06:04:31;;;;;;;8.63;6.47;;;8.70;56.00;;;;;;2126647;27;20018;-61
2021/03/02 06:05:54;;;;;;;9.40;6.72;;;8.80;56.10;;;;;;2129262;27;20030;-61
2021/03/02 06:07:14;;;;;;;8.20;6.45;;;8.70;56.10;;;;;;2126189;27;20026;-60
2021/03/02 06:08:35;;;;;;;7.22;5.85;;;8.80;56.10;;;;;;2128660;27;20182;-61
2021/03/02 06:09:57;;;;;;;9.82;7.15;;;8.70;56.10;;;;;;2124429;27;20039;-61
2021/03/02 06:11:27;;;;;;;8.40;6.65;;;8.70;56.10;;;;;;2123524;27;20028;-61
2021/03/02 06:12:52;;;;;;;;;;;8.70;56.30;;;;;;2130164;27;20430;-61
2021/03/02 06:14:19;;;;;;;8.02;5.88;;;8.70;56.50;;;;;;2127981;27;19915;-61
2021/03/02 06:15:54;;;;;;;9.77;5.78;;;8.70;55.90;;;;;;2126308;27;20043;-61
2021/03/02 06:17:25;;;;;;;8.48;6.30;;;8.70;56.00;;;;;;2128242;27;20062;-61
2021/03/02 06:18:55;;;;;;;11.55;6.88;;;8.70;56.00;;;;;;2127385;27;20413;-61
2021/03/02 06:20:21;;;;;;;10.02;7.85;;;8.70;55.80;;;;;;2125179;27;20083;-61
2021/03/02 06:21:42;;;;;;;10.32;7.47;;;8.70;55.90;;;;;;2126711;27;20031;-61
2021/03/02 06:23:30;;;;;;;10.65;7.65;;;8.70;55.90;;;;;;2127645;27;20082;-61
2021/03/02 06:24:51;;;;;;;17.17;7.32;;;8.70;56.20;;;;;;2128373;27;20035;-61
2021/03/02 06:26:12;;;;;;;11.50;8.52;;;8.70;55.80;;;;;;2127677;27;20503;-61
2021/03/02 06:27:33;;;;;;;9.23;7.50;;;8.70;56.40;;;;;;2126068;27;20031;-61
2021/03/02 06:28:56;;;;;;;10.15;8.13;;;8.70;56.00;;;;;;2128783;27;20039;-61
2021/03/02 06:30:18;;;;;;;9.90;7.88;;;8.70;56.00;;;;;;2122888;27;20413;-61
2021/03/02 06:31:46;;;;;;;12.52;7.75;;;8.70;56.10;;;;;;2128192;27;20113;-61
2021/03/02 06:33:17;;;;;;;9.85;7.78;;;8.70;56.30;;;;;;2129569;27;20489;-61
2021/03/02 06:34:49;;;;;;;9.98;7.53;;;8.60;56.30;;;;;;2128506;27;20082;-61
2021/03/02 06:36:18;;;;;;;13.93;7.68;;;8.60;56.30;;;;;;2119808;28;20076;-60
2021/03/02 06:37:44;;;;;;;10.90;7.97;;;8.70;56.40;;;;;;2126127;27;20035;-61
2021/03/02 06:39:25;;;;;;;9.52;7.13;;;8.70;56.20;;;;;;2126589;27;20389;-61
2021/03/02 06:40:50;;;;;;;8.60;6.78;;;8.60;56.50;;;;;;2128119;27;20446;-61
2021/03/02 06:42:17;;;;;;;9.00;6.30;;;8.70;56.10;;;;;;2127086;27;20023;-61
2021/03/02 06:43:39;;;;;;;9.77;6.68;;;8.60;56.20;;;;;;2129995;27;20063;-61
2021/03/02 06:45:06;;;;;;;8.15;6.70;;;8.60;56.10;;;;;;2120653;27;20042;-61
2021/03/02 06:46:38;;;;;;;8.05;6.65;;;8.60;56.30;;;;;;2125469;27;20015;-61
2021/03/02 06:48:06;;;;;;;8.25;6.60;;;8.60;56.40;;;;;;2127834;27;20620;-61
2021/03/02 06:49:53;;;;;;;8.90;6.82;;;8.60;56.30;;;;;;2123580;27;20357;-61
2021/03/02 06:51:32;;;;;;;9.70;6.60;;;8.60;56.50;;;;;;2129679;27;20027;-61
2021/03/02 06:52:53;;;;;;;7.15;6.28;;;8.60;56.40;;;;;;2128168;27;20086;-61
2021/03/02 06:54:24;;;;;;;12.40;7.72;;;8.60;56.10;;;;;;2128696;27;20027;-61
2021/03/02 06:55:45;;;;;;;11.25;8.00;;;8.60;56.20;;;;;;2128823;27;20022;-61
2021/03/02 06:57:06;;;;;;;9.88;8.15;;;8.70;56.30;;;;;;2127966;27;20031;-61
2021/03/02 06:58:27;;;;;;;10.13;8.50;;;8.60;56.30;;;;;;2129673;27;20027;-61
2021/03/02 06:59:56;;;;;;;11.57;9.63;;;8.60;56.40;;;;;;2126035;27;20476;-61
2021/03/02 07:01:35;;;;;;;12.18;9.60;;;8.60;56.70;;;;;;2125494;27;20058;-61
2021/03/02 07:02:56;;;;;;;10.98;8.98;;;8.60;56.80;;;;;;2128897;27;20034;-61
2021/03/02 07:04:21;;;;;;;12.85;8.63;;;8.70;56.50;;;;;;2124372;27;20019;-61
2021/03/02 07:05:48;;;;;;;10.23;8.60;;;8.70;56.50;;;;;;2128481;27;20059;-61
2021/03/02 07:07:14;;;;;;;11.18;8.45;;;8.70;56.60;;;;;;2127665;27;20110;-61
2021/03/02 07:08:36;;;;;;;12.00;8.90;;;8.70;56.50;;;;;;2113967;28;20066;-61
2021/03/02 07:09:58;;;;;;;10.00;7.95;;;8.70;56.50;;;;;;2125808;27;20141;-61
2021/03/02 07:11:19;;;;;;;14.70;8.65;;;8.70;56.60;;;;;;2122689;27;20023;-61
2021/03/02 07:12:41;;;;;;;10.18;8.80;;;8.70;56.70;;;;;;2129471;27;20041;-61
2021/03/02 07:14:04;;;;;;;11.35;8.52;;;8.70;56.70;;;;;;2129006;27;20071;-60
2021/03/02 07:15:26;;;;;;;11.70;8.80;;;8.80;56.80;;;;;;2123867;27;20027;-61